createdAt,value
2017-04-05T00:00:19.224Z,101937.73
2017-04-05T00:01:17.786Z,101938.86
2017-04-05T00:02:16.291Z,101940.81
2017-04-05T00:03:14.840Z,101938.84
2017-04-05T00:04:13.350Z,101934.45
2017-04-05T00:05:11.927Z,101934.33
2017-04-05T00:06:10.467Z,101936.18
2017-04-05T00:07:09.130Z,101933.98
2017-04-05T00:08:07.772Z,101940.33
2017-04-05T00:09:06.389Z,101939.02
2017-04-05T00:10:04.987Z,101944.27
2017-04-05T00:11:03.524Z,101946.30
2017-04-05T00:12:02.163Z,101943.59
2017-04-05T00:13:00.679Z,101937.66
2017-04-05T00:13:59.222Z,101942.67
2017-04-05T00:14:57.752Z,101942.31
2017-04-05T00:15:56.328Z,101942.40
2017-04-05T00:16:54.879Z,101937.52
2017-04-05T00:17:53.400Z,101932.97
2017-04-05T00:18:51.910Z,101935.23
2017-04-05T00:19:50.510Z,101936.62
2017-04-05T00:20:49.050Z,101932.16
2017-04-05T00:21:47.619Z,101928.97
2017-04-05T00:22:46.114Z,101934.81
2017-04-05T00:23:44.707Z,101931.84
2017-04-05T00:24:43.215Z,101929.85
2017-04-05T00:25:41.763Z,101933.84
2017-04-05T00:26:40.262Z,101931.77
2017-04-05T00:27:38.814Z,101928.42
2017-04-05T00:28:37.362Z,101930.36
2017-04-05T00:29:35.898Z,101933.20
2017-04-05T00:30:34.416Z,101930.33
2017-04-05T00:31:33.135Z,101934.58
2017-04-05T00:32:31.898Z,101933.89
2017-04-05T00:33:30.578Z,101932.66
2017-04-05T00:34:29.175Z,101940.14
2017-04-05T00:35:27.763Z,101929.80
2017-04-05T00:36:26.386Z,101937.30
2017-04-05T00:37:24.894Z,101931.87
2017-04-05T00:38:23.407Z,101923.52
2017-04-05T00:39:21.931Z,101922.31
2017-04-05T00:40:20.495Z,101921.55
2017-04-05T00:41:19.024Z,101923.91
2017-04-05T00:42:17.561Z,101921.11
2017-04-05T00:43:16.098Z,101924.89
2017-04-05T00:44:14.635Z,101929.80
2017-04-05T00:45:13.199Z,101924.30
2017-04-05T00:46:11.803Z,101923.83
2017-04-05T00:47:10.326Z,101918.43
2017-04-05T00:48:08.939Z,101922.44
2017-04-05T00:49:07.527Z,101920.72
2017-04-05T00:50:06.083Z,101917.52
2017-04-05T00:51:04.651Z,101919.33
2017-04-05T00:52:03.219Z,101926.23
2017-04-05T00:53:01.763Z,101922.39
2017-04-05T00:54:00.282Z,101922.08
2017-04-05T00:54:58.879Z,101923.45
2017-04-05T00:55:57.490Z,101915.63
2017-04-05T00:56:55.998Z,101923.05
2017-04-05T00:57:54.585Z,101912.92
2017-04-05T00:58:53.125Z,101915.66
2017-04-05T00:59:51.641Z,101916.23
2017-04-05T01:00:50.159Z,101919.72
2017-04-05T01:01:48.730Z,101923.56
2017-04-05T01:02:47.254Z,101924.39
2017-04-05T01:03:45.754Z,101924.47
2017-04-05T01:04:44.263Z,101925.36
2017-04-05T01:05:42.764Z,101922.50
2017-04-05T01:06:41.332Z,101924.28
2017-04-05T01:07:39.839Z,101925.92
2017-04-05T01:08:38.362Z,101924.19
2017-04-05T01:09:36.871Z,101924.58
2017-04-05T01:10:35.430Z,101927.81
2017-04-05T01:11:33.932Z,101931.59
2017-04-05T01:12:32.487Z,101924.97
2017-04-05T01:13:31.010Z,101929.52
2017-04-05T01:14:29.495Z,101925.83
2017-04-05T01:15:28.112Z,101926.30
2017-04-05T01:16:26.636Z,101921.14
2017-04-05T01:17:25.199Z,101922.59
2017-04-05T01:18:23.766Z,101915.84
2017-04-05T01:19:22.276Z,101915.09
2017-04-05T01:20:20.851Z,101913.77
2017-04-05T01:21:19.459Z,101911.13
2017-04-05T01:22:18.016Z,101916.35
2017-04-05T01:23:16.554Z,101918.50
2017-04-05T01:24:15.150Z,101914.49
2017-04-05T01:25:13.656Z,101912.54
2017-04-05T01:26:12.186Z,101913.06
2017-04-05T01:27:10.700Z,101913.97
2017-04-05T01:28:09.263Z,101922.41
2017-04-05T01:29:07.880Z,101924.06
2017-04-05T01:30:06.364Z,101924.09
2017-04-05T01:31:04.863Z,101923.12
2017-04-05T01:32:03.401Z,101923.64
2017-04-05T01:33:01.927Z,101927.86
2017-04-05T01:34:00.467Z,101920.10
2017-04-05T01:34:59.038Z,101920.53
2017-04-05T01:35:57.548Z,101920.25
2017-04-05T01:36:56.073Z,101917.58
2017-04-05T01:37:54.579Z,101923.08
2017-04-05T01:38:53.115Z,101917.87
2017-04-05T01:39:51.637Z,101918.66
2017-04-05T01:40:50.194Z,101918.64
2017-04-05T01:41:48.739Z,101923.98
2017-04-05T01:42:47.230Z,101924.42
2017-04-05T01:43:45.922Z,101926.03
2017-04-05T01:44:44.419Z,101925.44
2017-04-05T01:45:42.975Z,101931.70
2017-04-05T01:46:41.488Z,101926.17
2017-04-05T01:47:39.975Z,101929.75
2017-04-05T01:48:38.523Z,101926.98
2017-04-05T01:49:37.035Z,101929.58
2017-04-05T01:50:35.612Z,101932.53
2017-04-05T01:51:34.142Z,101930.54
2017-04-05T01:52:32.693Z,101934.52
2017-04-05T01:53:31.203Z,101928.70
2017-04-05T01:54:29.935Z,101935.37
2017-04-05T01:55:28.495Z,101932.00
2017-04-05T01:56:26.992Z,101934.36
2017-04-05T01:57:25.476Z,101935.64
2017-04-05T01:58:23.996Z,101932.66
2017-04-05T01:59:22.602Z,101923.73
2017-04-05T02:00:21.172Z,101930.76
2017-04-05T02:01:19.912Z,101930.72
2017-04-05T02:02:18.578Z,101930.43
2017-04-05T02:03:17.189Z,101929.52
2017-04-05T02:04:15.794Z,101929.40
2017-04-05T02:05:14.415Z,101926.67
2017-04-05T02:06:12.979Z,101930.11
2017-04-05T02:07:11.506Z,101928.86
2017-04-05T02:08:10.191Z,101924.59
2017-04-05T02:09:08.879Z,101925.85
2017-04-05T02:10:07.503Z,101922.77
2017-04-05T02:11:06.087Z,101927.80
2017-04-05T02:12:04.751Z,101924.05
2017-04-05T02:13:03.347Z,101920.55
2017-04-05T02:14:01.879Z,101918.58
2017-04-05T02:15:00.398Z,101917.59
2017-04-05T02:15:58.895Z,101916.39
2017-04-05T02:16:57.418Z,101917.38
2017-04-05T02:17:55.907Z,101915.08
2017-04-05T02:18:54.443Z,101914.64
2017-04-05T02:19:53.110Z,101912.95
2017-04-05T02:20:51.714Z,101912.86
2017-04-05T02:21:50.206Z,101915.56
2017-04-05T02:22:48.834Z,101916.09
2017-04-05T02:23:47.499Z,101909.85
2017-04-05T02:24:46.095Z,101919.48
2017-04-05T02:25:44.650Z,101911.37
2017-04-05T02:26:43.242Z,101914.52
2017-04-05T02:27:41.758Z,101912.56
2017-04-05T02:28:40.303Z,101916.36
2017-04-05T02:29:38.818Z,101916.06
2017-04-05T02:30:37.331Z,101913.59
2017-04-05T02:31:35.927Z,101910.22
2017-04-05T02:32:34.563Z,101910.48
2017-04-05T02:33:33.098Z,101909.30
2017-04-05T02:34:31.612Z,101908.19
2017-04-05T02:35:30.220Z,101913.15
2017-04-05T02:36:28.823Z,101908.94
2017-04-05T02:37:27.490Z,101914.05
2017-04-05T02:38:26.087Z,101916.03
2017-04-05T02:39:24.594Z,101906.73
2017-04-05T02:40:23.066Z,101918.72
2017-04-05T02:41:21.594Z,101924.17
2017-04-05T02:42:20.127Z,101917.30
2017-04-05T02:43:18.835Z,101917.54
2017-04-05T02:44:17.349Z,101917.66
2017-04-05T02:45:15.978Z,101921.53
2017-04-05T02:46:14.626Z,101922.44
2017-04-05T02:47:13.167Z,101922.52
2017-04-05T02:48:11.703Z,101921.41
2017-04-05T02:49:10.334Z,101921.20
2017-04-05T02:50:08.890Z,101918.45
2017-04-05T02:51:07.410Z,101918.77
2017-04-05T02:52:05.907Z,101916.59
2017-04-05T02:53:04.508Z,101918.88
2017-04-05T02:54:02.999Z,101918.65
2017-04-05T02:55:01.508Z,101923.03
2017-04-05T02:56:00.017Z,101921.29
2017-04-05T02:56:58.599Z,101919.53
2017-04-05T02:57:57.107Z,101920.94
2017-04-05T02:58:55.615Z,101920.47
2017-04-05T02:59:54.167Z,101923.64
2017-04-05T03:00:52.795Z,101918.41
2017-04-05T03:01:51.291Z,101929.30
2017-04-05T03:02:49.783Z,101928.18
2017-04-05T03:03:48.335Z,101926.06
2017-04-05T03:04:46.955Z,101930.30
2017-04-05T03:05:45.519Z,101923.74
2017-04-05T03:06:44.038Z,101927.70
2017-04-05T03:07:42.538Z,101921.76
2017-04-05T03:08:41.042Z,101924.52
2017-04-05T03:09:39.562Z,101915.08
2017-04-05T03:10:38.072Z,101922.72
2017-04-05T03:11:36.620Z,101915.84
2017-04-05T03:12:35.251Z,101918.43
2017-04-05T03:13:33.795Z,101924.72
2017-04-05T03:14:32.379Z,101922.97
2017-04-05T03:15:30.901Z,101925.53
2017-04-05T03:16:29.428Z,101925.08
2017-04-05T03:17:27.949Z,101925.18
2017-04-05T03:18:26.467Z,101924.22
2017-04-05T03:19:25.080Z,101921.77
2017-04-05T03:20:24.475Z,101922.98
2017-04-05T03:21:22.971Z,101924.17
2017-04-05T03:22:21.549Z,101925.08
2017-04-05T03:23:20.219Z,101925.00
2017-04-05T03:24:18.798Z,101925.11
2017-04-05T03:25:17.343Z,101924.09
2017-04-05T03:26:15.841Z,101923.86
2017-04-05T03:27:14.382Z,101924.30
2017-04-05T03:28:13.179Z,101924.59
2017-04-05T03:29:11.700Z,101920.68
2017-04-05T03:30:10.212Z,101917.09
2017-04-05T03:31:08.723Z,101916.91
2017-04-05T03:32:07.255Z,101924.69
2017-04-05T03:33:05.799Z,101923.42
2017-04-05T03:34:04.327Z,101919.03
2017-04-05T03:35:02.895Z,101921.23
2017-04-05T03:36:01.512Z,101918.22
2017-04-05T03:37:00.032Z,101923.79
2017-04-05T03:37:58.531Z,101924.36
2017-04-05T03:38:57.142Z,101921.02
2017-04-05T03:39:55.643Z,101917.89
2017-04-05T03:40:54.155Z,101925.61
2017-04-05T03:41:52.996Z,101923.75
2017-04-05T03:42:51.674Z,101919.66
2017-04-05T03:43:50.293Z,101917.96
2017-04-05T03:44:48.913Z,101924.12
2017-04-05T03:45:47.383Z,101920.38
2017-04-05T03:46:45.957Z,101926.52
2017-04-05T03:47:44.462Z,101919.86
2017-04-05T03:48:42.967Z,101923.05
2017-04-05T03:49:41.451Z,101926.72
2017-04-05T03:50:39.987Z,101921.78
2017-04-05T03:51:38.483Z,101922.50
2017-04-05T03:52:37.210Z,101934.19
2017-04-05T03:53:35.724Z,101934.48
2017-04-05T03:54:34.345Z,101929.77
2017-04-05T03:55:32.934Z,101935.73
2017-04-05T03:56:31.428Z,101933.17
2017-04-05T03:57:29.936Z,101933.06
2017-04-05T03:58:28.483Z,101937.63
2017-04-05T03:59:27.083Z,101933.31
2017-04-05T04:00:25.808Z,101931.14
2017-04-05T04:01:24.351Z,101926.59
2017-04-05T04:02:22.886Z,101931.27
2017-04-05T04:03:21.433Z,101929.81
2017-04-05T04:04:19.944Z,101926.34
2017-04-05T04:05:18.438Z,101932.45
2017-04-05T04:06:16.926Z,101937.38
2017-04-05T04:07:15.423Z,101935.02
2017-04-05T04:08:13.934Z,101932.80
2017-04-05T04:09:12.572Z,101934.70
2017-04-05T04:10:11.216Z,101931.80
2017-04-05T04:11:09.696Z,101930.03
2017-04-05T04:12:08.299Z,101934.41
2017-04-05T04:13:06.871Z,101929.81
2017-04-05T04:14:05.409Z,101924.05
2017-04-05T04:15:03.972Z,101931.13
2017-04-05T04:16:02.604Z,101933.58
2017-04-05T04:17:01.198Z,101933.55
2017-04-05T04:17:59.791Z,101931.52
2017-04-05T04:18:58.318Z,101935.98
2017-04-05T04:19:56.826Z,101939.98
2017-04-05T04:20:55.316Z,101940.61
2017-04-05T04:21:53.843Z,101939.19
2017-04-05T04:22:52.414Z,101938.91
2017-04-05T04:23:50.925Z,101935.50
2017-04-05T04:24:49.408Z,101929.66
2017-04-05T04:25:47.923Z,101930.59
2017-04-05T04:26:46.444Z,101932.70
2017-04-05T04:27:44.935Z,101935.25
2017-04-05T04:28:43.467Z,101934.08
2017-04-05T04:29:41.969Z,101934.70
2017-04-05T04:30:40.855Z,101935.41
2017-04-05T04:31:39.383Z,101938.93
2017-04-05T04:32:38.018Z,101940.41
2017-04-05T04:33:36.573Z,101938.95
2017-04-05T04:34:35.151Z,101936.51
2017-04-05T04:35:33.719Z,101938.77
2017-04-05T04:36:32.259Z,101938.17
2017-04-05T04:37:30.782Z,101938.65
2017-04-05T04:38:29.323Z,101938.91
2017-04-05T04:39:27.830Z,101938.81
2017-04-05T04:40:26.388Z,101941.48
2017-04-05T04:41:24.937Z,101941.16
2017-04-05T04:42:23.472Z,101943.51
2017-04-05T04:43:21.976Z,101939.52
2017-04-05T04:44:20.636Z,101943.91
2017-04-05T04:45:19.175Z,101946.58
2017-04-05T04:46:17.671Z,101948.74
2017-04-05T04:47:16.303Z,101950.56
2017-04-05T04:48:15.040Z,101949.03
2017-04-05T04:49:13.590Z,101954.76
2017-04-05T04:50:12.114Z,101953.95
2017-04-05T04:51:10.657Z,101961.64
2017-04-05T04:52:09.179Z,101960.29
2017-04-05T04:53:07.760Z,101954.47
2017-04-05T04:54:06.359Z,101958.96
2017-04-05T04:55:04.979Z,101952.41
2017-04-05T04:56:03.683Z,101960.50
2017-04-05T04:57:02.291Z,101957.86
2017-04-05T04:58:00.799Z,101960.32
2017-04-05T04:58:59.363Z,101960.11
2017-04-05T04:59:58.188Z,101954.67
2017-04-05T05:00:56.788Z,101965.33
2017-04-05T05:01:55.322Z,101968.80
2017-04-05T05:02:53.830Z,101961.55
2017-04-05T05:03:52.318Z,101965.86
2017-04-05T05:04:50.832Z,101965.53
2017-04-05T05:05:49.364Z,101965.23
2017-04-05T05:06:47.881Z,101964.80
2017-04-05T05:07:46.479Z,101960.39
2017-04-05T05:08:45.118Z,101959.36
2017-04-05T05:09:43.655Z,101966.33
2017-04-05T05:10:42.372Z,101968.77
2017-04-05T05:11:40.951Z,101967.34
2017-04-05T05:12:39.520Z,101976.88
2017-04-05T05:13:38.045Z,101972.03
2017-04-05T05:14:36.592Z,101977.47
2017-04-05T05:15:35.123Z,101975.21
2017-04-05T05:16:33.636Z,101976.25
2017-04-05T05:17:32.154Z,101980.56
2017-04-05T05:18:30.665Z,101983.34
2017-04-05T05:19:29.197Z,101987.02
2017-04-05T05:20:27.827Z,101983.76
2017-04-05T05:21:26.441Z,101985.19
2017-04-05T05:22:25.030Z,101982.95
2017-04-05T05:23:23.680Z,101985.20
2017-04-05T05:24:22.314Z,101982.42
2017-04-05T05:25:20.838Z,101980.67
2017-04-05T05:26:19.323Z,101984.78
2017-04-05T05:27:17.831Z,101979.94
2017-04-05T05:28:16.356Z,101984.44
2017-04-05T05:29:14.879Z,101988.22
2017-04-05T05:30:13.428Z,101987.12
2017-04-05T05:31:11.987Z,101984.16
2017-04-05T05:32:10.505Z,101985.91
2017-04-05T05:33:09.239Z,101993.06
2017-04-05T05:34:07.859Z,101992.66
2017-04-05T05:35:06.388Z,101996.23
2017-04-05T05:36:04.927Z,102001.22
2017-04-05T05:37:03.444Z,102003.69
2017-04-05T05:38:02.122Z,101999.22
2017-04-05T05:39:00.669Z,102005.34
2017-04-05T05:39:59.271Z,102000.92
2017-04-05T05:40:57.764Z,101998.38
2017-04-05T05:41:56.251Z,102002.05
2017-04-05T05:42:54.772Z,102003.30
2017-04-05T05:43:53.398Z,102008.95
2017-04-05T05:44:51.943Z,102007.62
2017-04-05T05:45:50.438Z,102013.34
2017-04-05T05:46:48.991Z,102012.63
2017-04-05T05:47:47.579Z,102014.70
2017-04-05T05:48:46.128Z,102015.50
2017-04-05T05:49:44.744Z,102023.50
2017-04-05T05:50:43.474Z,102023.39
2017-04-05T05:51:42.048Z,102026.33
2017-04-05T05:52:40.592Z,102031.33
2017-04-05T05:53:39.228Z,102032.97
2017-04-05T05:54:37.762Z,102033.83
2017-04-05T05:55:36.320Z,102037.61
2017-04-05T05:56:34.842Z,102033.02
2017-04-05T05:57:33.486Z,102034.56
2017-04-05T05:58:32.245Z,102028.92
2017-04-05T05:59:32.579Z,102032.81
2017-04-05T06:00:31.384Z,102038.43
2017-04-05T06:01:29.903Z,102037.62
2017-04-05T06:02:28.443Z,102043.74
2017-04-05T06:03:26.960Z,102043.05
2017-04-05T06:04:25.478Z,102040.88
2017-04-05T06:05:24.043Z,102035.55
2017-04-05T06:06:22.981Z,102036.87
2017-04-05T06:07:22.047Z,102038.52
2017-04-05T06:08:20.627Z,102036.04
2017-04-05T06:09:19.176Z,102040.96
2017-04-05T06:10:17.791Z,102043.94
2017-04-05T06:11:16.388Z,102045.17
2017-04-05T06:12:15.049Z,102038.09
2017-04-05T06:13:13.706Z,102041.16
2017-04-05T06:14:12.453Z,102036.53
2017-04-05T06:15:14.927Z,102041.16
2017-04-05T06:16:13.520Z,102041.95
2017-04-05T06:17:12.060Z,102036.97
2017-04-05T06:18:10.799Z,102038.20
2017-04-05T06:19:09.544Z,102047.92
2017-04-05T06:20:08.194Z,102048.63
2017-04-05T06:21:06.924Z,102044.20
2017-04-05T06:22:05.471Z,102046.87
2017-04-05T06:23:04.087Z,102045.64
2017-04-05T06:24:02.780Z,102050.48
2017-04-05T06:25:01.392Z,102053.55
2017-04-05T06:26:00.039Z,102050.37
2017-04-05T06:26:58.571Z,102054.84
2017-04-05T06:27:57.406Z,102056.58
2017-04-05T06:28:56.157Z,102056.34
2017-04-05T06:29:54.873Z,102053.33
2017-04-05T06:30:53.466Z,102060.70
2017-04-05T06:31:54.605Z,102055.56
2017-04-05T06:32:53.382Z,102052.76
2017-04-05T06:33:52.052Z,102055.02
2017-04-05T06:34:50.777Z,102056.13
2017-04-05T06:35:49.287Z,102056.42
2017-04-05T06:36:47.823Z,102064.67
2017-04-05T06:37:46.411Z,102064.41
2017-04-05T06:38:45.310Z,102064.41
2017-04-05T06:39:43.862Z,102059.62
2017-04-05T06:40:42.416Z,102063.39
2017-04-05T06:41:41.121Z,102063.65
2017-04-05T06:42:39.675Z,102059.62
2017-04-05T06:43:38.250Z,102064.25
2017-04-05T06:44:36.783Z,102062.89
2017-04-05T06:45:35.312Z,102066.87
2017-04-05T06:46:34.252Z,102061.98
2017-04-05T06:47:32.761Z,102067.44
2017-04-05T06:48:31.296Z,102062.37
2017-04-05T06:49:29.911Z,102070.52
2017-04-05T06:50:28.504Z,102066.19
2017-04-05T06:51:27.145Z,102071.73
2017-04-05T06:52:25.744Z,102071.78
2017-04-05T06:53:24.332Z,102077.53
2017-04-05T06:54:22.839Z,102078.20
2017-04-05T06:55:21.458Z,102068.97
2017-04-05T06:56:19.988Z,102075.47
2017-04-05T06:57:18.620Z,102071.16
2017-04-05T06:58:17.252Z,102086.74
2017-04-05T06:59:15.774Z,102083.59
2017-04-05T07:00:14.554Z,102079.81
2017-04-05T07:01:13.208Z,102081.22
2017-04-05T07:02:11.728Z,102086.53
2017-04-05T07:03:10.286Z,102081.47
2017-04-05T07:04:08.919Z,102082.45
2017-04-05T07:05:08.484Z,102088.05
2017-04-05T07:06:07.063Z,102089.86
2017-04-05T07:07:06.147Z,102092.92
2017-04-05T07:08:04.695Z,102088.97
2017-04-05T07:09:03.405Z,102093.53
2017-04-05T07:10:02.405Z,102100.45
2017-04-05T07:11:00.958Z,102096.14
2017-04-05T07:11:59.486Z,102100.72
2017-04-05T07:12:58.122Z,102106.05
2017-04-05T07:13:56.656Z,102104.07
2017-04-05T07:14:55.222Z,102105.73
2017-04-05T07:15:53.850Z,102109.39
2017-04-05T07:16:52.441Z,102107.41
2017-04-05T07:17:50.949Z,102107.87
2017-04-05T07:18:49.489Z,102107.05
2017-04-05T07:19:48.047Z,102112.91
2017-04-05T07:20:46.608Z,102106.84
2017-04-05T07:21:45.112Z,102113.02
2017-04-05T07:22:43.731Z,102110.53
2017-04-05T07:23:42.216Z,102109.37
2017-04-05T07:24:40.727Z,102106.95
2017-04-05T07:25:39.240Z,102108.96
2017-04-05T07:26:37.776Z,102110.94
2017-04-05T07:27:36.339Z,102116.17
2017-04-05T07:28:34.847Z,102111.22
2017-04-05T07:29:33.358Z,102113.30
2017-04-05T07:30:31.867Z,102114.64
2017-04-05T07:31:30.381Z,102121.09
2017-04-05T07:32:28.879Z,102120.59
2017-04-05T07:33:27.429Z,102116.00
2017-04-05T07:34:25.952Z,102116.31
2017-04-05T07:35:24.575Z,102122.89
2017-04-05T07:36:23.107Z,102123.45
2017-04-05T07:37:21.652Z,102117.50
2017-04-05T07:38:20.181Z,102126.83
2017-04-05T07:39:18.751Z,102127.73
2017-04-05T07:40:17.291Z,102122.31
2017-04-05T07:41:15.808Z,102121.27
2017-04-05T07:42:14.345Z,102127.07
2017-04-05T07:43:13.025Z,102115.92
2017-04-05T07:44:11.629Z,102123.30
2017-04-05T07:45:10.273Z,102119.98
2017-04-05T07:46:08.840Z,102123.18
2017-04-05T07:47:07.467Z,102121.86
2017-04-05T07:48:05.975Z,102118.37
2017-04-05T07:49:04.758Z,102115.51
2017-04-05T07:50:03.356Z,102118.61
2017-04-05T07:51:01.896Z,102112.80
2017-04-05T07:52:00.586Z,102109.89
2017-04-05T07:52:59.128Z,102112.80
2017-04-05T07:53:57.720Z,102112.06
2017-04-05T07:54:56.299Z,102107.28
2017-04-05T07:55:54.808Z,102112.10
2017-04-05T07:56:53.325Z,102108.70
2017-04-05T07:57:51.811Z,102109.34
2017-04-05T07:58:50.341Z,102115.36
2017-04-05T07:59:48.882Z,102117.23
2017-04-05T08:00:47.399Z,102119.48
2017-04-05T08:01:46.023Z,102125.72
2017-04-05T08:02:44.652Z,102127.63
2017-04-05T08:03:43.308Z,102127.17
2017-04-05T08:04:41.941Z,102127.21
2017-04-05T08:05:40.573Z,102127.75
2017-04-05T08:06:39.184Z,102121.66
2017-04-05T08:07:37.836Z,102122.16
2017-04-05T08:08:36.461Z,102117.23
2017-04-05T08:09:34.982Z,102121.66
2017-04-05T08:10:33.528Z,102117.92
2017-04-05T08:11:32.036Z,102122.43
2017-04-05T08:12:30.941Z,102124.95
2017-04-05T08:13:29.472Z,102126.34
2017-04-05T08:14:27.983Z,102126.60
2017-04-05T08:15:26.504Z,102127.98
2017-04-05T08:16:25.060Z,102127.59
2017-04-05T08:17:23.751Z,102129.52
2017-04-05T08:18:22.281Z,102127.44
2017-04-05T08:19:20.872Z,102129.42
2017-04-05T08:20:19.416Z,102121.42
2017-04-05T08:21:18.005Z,102116.36
2017-04-05T08:22:16.588Z,102119.61
2017-04-05T08:23:15.148Z,102124.94
2017-04-05T08:24:13.748Z,102129.03
2017-04-05T08:25:12.272Z,102126.62
2017-04-05T08:26:10.812Z,102125.66
2017-04-05T08:27:09.333Z,102132.32
2017-04-05T08:28:07.895Z,102122.58
2017-04-05T08:29:06.439Z,102121.03
2017-04-05T08:30:05.004Z,102118.66
2017-04-05T08:31:03.640Z,102111.05
2017-04-05T08:32:02.248Z,102109.69
2017-04-05T08:33:00.828Z,102106.83
2017-04-05T08:33:59.342Z,102097.78
2017-04-05T08:34:58.152Z,102104.14
2017-04-05T08:35:56.708Z,102100.19
2017-04-05T08:36:55.298Z,102104.97
2017-04-05T08:37:53.855Z,102106.66
2017-04-05T08:38:52.471Z,102108.64
2017-04-05T08:39:50.992Z,102113.94
2017-04-05T08:40:49.524Z,102118.61
2017-04-05T08:41:48.093Z,102122.14
2017-04-05T08:42:46.644Z,102124.94
2017-04-05T08:43:45.162Z,102121.50
2017-04-05T08:44:43.655Z,102120.61
2017-04-05T08:45:42.296Z,102122.02
2017-04-05T08:46:40.931Z,102122.22
2017-04-05T08:47:39.571Z,102125.86
2017-04-05T08:48:38.255Z,102123.75
2017-04-05T08:49:36.899Z,102123.56
2017-04-05T08:50:35.439Z,102122.48
2017-04-05T08:51:33.969Z,102125.45
2017-04-05T08:52:32.545Z,102120.48
2017-04-05T08:53:31.068Z,102123.12
2017-04-05T08:54:29.600Z,102121.31
2017-04-05T08:55:28.130Z,102121.22
2017-04-05T08:56:26.641Z,102122.81
2017-04-05T08:57:25.147Z,102125.14
2017-04-05T08:58:23.744Z,102124.74
2017-04-05T08:59:22.307Z,102120.97
2017-04-05T09:00:20.984Z,102122.88
2017-04-05T09:01:19.620Z,102126.44
2017-04-05T09:02:18.544Z,102125.70
2017-04-05T09:03:17.229Z,102124.67
2017-04-05T09:04:15.773Z,102127.80
2017-04-05T09:05:14.311Z,102125.65
2017-04-05T09:06:12.911Z,102118.45
2017-04-05T09:07:11.507Z,102123.53
2017-04-05T09:08:10.212Z,102118.94
2017-04-05T09:09:08.716Z,102120.76
2017-04-05T09:10:07.250Z,102121.09
2017-04-05T09:11:05.792Z,102125.98
2017-04-05T09:12:04.343Z,102133.23
2017-04-05T09:13:02.894Z,102131.53
2017-04-05T09:14:01.483Z,102131.53
2017-04-05T09:15:00.094Z,102131.59
2017-04-05T09:15:58.646Z,102124.76
2017-04-05T09:16:57.189Z,102118.61
2017-04-05T09:17:55.748Z,102125.08
2017-04-05T09:18:54.287Z,102123.23
2017-04-05T09:19:52.937Z,102112.01
2017-04-05T09:20:51.479Z,102118.92
2017-04-05T09:21:50.060Z,102116.58
2017-04-05T09:22:48.691Z,102119.81
2017-04-05T09:23:47.239Z,102114.69
2017-04-05T09:24:45.924Z,102112.88
2017-04-05T09:25:44.513Z,102112.24
2017-04-05T09:26:43.023Z,102116.52
2017-04-05T09:27:41.591Z,102114.77
2017-04-05T09:28:40.228Z,102108.34
2017-04-05T09:29:38.982Z,102105.91
2017-04-05T09:30:37.499Z,102107.42
2017-04-05T09:31:36.056Z,102101.13
2017-04-05T09:32:34.614Z,102102.47
2017-04-05T09:33:33.147Z,102105.40
2017-04-05T09:34:31.648Z,102108.89
2017-04-05T09:35:30.171Z,102110.29
2017-04-05T09:36:28.741Z,102116.17
2017-04-05T09:37:27.399Z,102114.62
2017-04-05T09:38:26.043Z,102115.42
2017-04-05T09:39:24.603Z,102114.20
2017-04-05T09:40:23.888Z,102114.56
2017-04-05T09:41:22.425Z,102114.31
2017-04-05T09:42:20.940Z,102108.20
2017-04-05T09:43:19.511Z,102114.26
2017-04-05T09:44:18.107Z,102119.03
2017-04-05T09:45:16.639Z,102121.33
2017-04-05T09:46:15.170Z,102115.55
2017-04-05T09:47:13.723Z,102114.73
2017-04-05T09:48:12.264Z,102116.67
2017-04-05T09:49:10.875Z,102115.06
2017-04-05T09:50:09.528Z,102131.02
2017-04-05T09:51:08.167Z,102120.03
2017-04-05T09:52:06.767Z,102124.87
2017-04-05T09:53:05.452Z,102118.91
2017-04-05T09:54:03.988Z,102119.84
2017-04-05T09:55:02.520Z,102122.88
2017-04-05T09:56:01.088Z,102114.55
2017-04-05T09:56:59.647Z,102114.38
2017-04-05T09:57:58.209Z,102107.73
2017-04-05T09:58:56.804Z,102107.83
2017-04-05T09:59:55.411Z,102113.73
2017-04-05T10:00:54.044Z,102110.58
2017-04-05T10:01:52.660Z,102111.06
2017-04-05T10:02:51.179Z,102106.27
2017-04-05T10:03:49.695Z,102111.05
2017-04-05T10:04:49.137Z,102107.30
2017-04-05T10:05:47.677Z,102113.05
2017-04-05T10:06:46.226Z,102116.65
2017-04-05T10:07:44.750Z,102114.03
2017-04-05T10:08:43.306Z,102120.26
2017-04-05T10:09:41.893Z,102114.14
2017-04-05T10:10:40.464Z,102115.11
2017-04-05T10:11:39.015Z,102114.64
2017-04-05T10:12:37.515Z,102109.44
2017-04-05T10:13:36.031Z,102120.79
2017-04-05T10:14:34.547Z,102123.30
2017-04-05T10:15:33.083Z,102121.51
2017-04-05T10:16:31.648Z,102119.92
2017-04-05T10:17:30.186Z,102112.50
2017-04-05T10:18:28.791Z,102120.73
2017-04-05T10:19:27.398Z,102116.88
2017-04-05T10:20:25.996Z,102117.84
2017-04-05T10:21:24.704Z,102111.57
2017-04-05T10:22:23.353Z,102114.38
2017-04-05T10:23:21.917Z,102113.62
2017-04-05T10:24:20.415Z,102106.38
2017-04-05T10:25:18.961Z,102108.77
2017-04-05T10:26:17.540Z,102106.95
2017-04-05T10:27:16.060Z,102108.70
2017-04-05T10:28:14.613Z,102102.98
2017-04-05T10:29:13.163Z,102105.78
2017-04-05T10:30:11.703Z,102108.46
2017-04-05T10:31:10.267Z,102108.52
2017-04-05T10:32:08.817Z,102112.61
2017-04-05T10:33:07.447Z,102105.64
2017-04-05T10:34:05.959Z,102111.21
2017-04-05T10:35:04.642Z,102101.99
2017-04-05T10:36:03.227Z,102106.88
2017-04-05T10:37:01.759Z,102109.13
2017-04-05T10:38:00.278Z,102114.50
2017-04-05T10:38:58.810Z,102114.08
2017-04-05T10:39:57.327Z,102117.92
2017-04-05T10:40:55.862Z,102122.28
2017-04-05T10:41:54.379Z,102119.45
2017-04-05T10:42:52.923Z,102122.73
2017-04-05T10:43:51.444Z,102123.36
2017-04-05T10:44:49.987Z,102116.31
2017-04-05T10:45:48.516Z,102116.26
2017-04-05T10:46:47.106Z,102113.84
2017-04-05T10:47:45.674Z,102111.16
2017-04-05T10:48:44.239Z,102112.26
2017-04-05T10:49:42.827Z,102110.65
2017-04-05T10:50:41.373Z,102105.10
2017-04-05T10:51:39.982Z,102106.77
2017-04-05T10:52:38.492Z,102116.88
2017-04-05T10:53:37.014Z,102109.86
2017-04-05T10:54:35.628Z,102112.45
2017-04-05T10:55:34.173Z,102112.67
2017-04-05T10:56:32.719Z,102106.89
2017-04-05T10:57:31.227Z,102098.95
2017-04-05T10:58:29.723Z,102099.19
2017-04-05T10:59:28.351Z,102097.73
2017-04-05T11:00:26.922Z,102102.36
2017-04-05T11:01:25.483Z,102098.91
2017-04-05T11:02:24.442Z,102096.80
2017-04-05T11:03:22.955Z,102101.63
2017-04-05T11:04:21.591Z,102098.19
2017-04-05T11:05:20.231Z,102098.83
2017-04-05T11:06:18.774Z,102100.86
2017-04-05T11:07:17.363Z,102099.74
2017-04-05T11:08:15.935Z,102094.95